Time;durP1;ratioP1;P1;durP2;ratioP2;P2;SDS_P1;SDS_P2;PMS_P1;PMS_P2;Temp;Humidity;BMP_temperature;BMP_pressure;BME280_temperature;BME280_humidity;BME280_pressure;Samples;Min_cycle;Max_cycle;Signal;HPM_P1;HPM_P2
2023/01/13 00:02:12;;;;;;;1.20;1.03;;;8.00;99.90;;;;;;4987744;28;20187;-82
2023/01/13 00:04:37;;;;;;;1.13;0.97;;;8.00;99.90;;;;;;4981528;28;20594;-82
2023/01/13 00:07:03;;;;;;;2.37;1.00;;;7.90;99.90;;;;;;5005008;28;20186;-83
2023/01/13 00:09:28;;;;;;;1.20;1.00;;;7.90;99.90;;;;;;4995866;28;20241;-84
2023/01/13 00:11:55;;;;;;;1.10;1.07;;;8.00;99.90;;;;;;4995663;28;20240;-82
2023/01/13 00:14:20;;;;;;;1.13;0.90;;;8.00;99.90;;;;;;4995965;28;20234;-82
2023/01/13 00:16:46;;;;;;;1.10;1.00;;;8.00;99.90;;;;;;4995805;28;20186;-82
2023/01/13 00:19:12;;;;;;;1.30;1.20;;;8.00;99.90;;;;;;5013159;28;20215;-82
2023/01/13 00:21:38;;;;;;;1.63;1.10;;;8.00;99.90;;;;;;4987714;28;20608;-83
2023/01/13 00:24:05;;;;;;;1.20;1.00;;;8.00;99.90;;;;;;5005202;28;20174;-83
2023/01/13 00:26:34;;;;;;;3.53;1.30;;;8.00;99.90;;;;;;4995412;28;20178;-84
2023/01/13 00:29:00;;;;;;;1.40;1.30;;;8.00;99.90;;;;;;4995589;28;20236;-82
2023/01/13 00:31:27;;;;;;;1.67;1.10;;;7.90;99.90;;;;;;5012834;28;20234;-82
2023/01/13 00:33:56;;;;;;;1.40;1.17;;;7.90;99.90;;;;;;5012871;28;20206;-82
2023/01/13 00:36:21;;;;;;;1.80;1.10;;;8.00;99.90;;;;;;4983661;28;20172;-82
2023/01/13 00:38:47;;;;;;;1.70;1.03;;;8.00;99.90;;;;;;4987500;28;20197;-82
2023/01/13 00:41:15;;;;;;;2.97;1.20;;;8.00;99.90;;;;;;4995471;28;20174;-82
2023/01/13 00:43:41;;;;;;;1.83;1.10;;;8.00;99.90;;;;;;5013175;28;20179;-82
2023/01/13 00:46:10;;;;;;;1.53;1.10;;;8.00;99.90;;;;;;4994372;28;20175;-82
2023/01/13 00:48:36;;;;;;;1.10;1.00;;;8.00;99.90;;;;;;5012710;28;20182;-82
2023/01/13 00:51:04;;;;;;;2.17;1.00;;;8.00;99.90;;;;;;4995461;28;20178;-84
2023/01/13 00:53:33;;;;;;;1.60;1.50;;;8.10;99.90;;;;;;5012834;28;20199;-82
2023/01/13 00:56:05;;;;;;;1.70;1.10;;;8.00;99.90;;;;;;5012813;28;20179;-81
2023/01/13 00:58:32;;;;;;;1.40;1.30;;;8.00;99.90;;;;;;5012531;28;20167;-82
2023/01/13 01:01:06;;;;;;;1.63;1.27;;;8.00;99.90;;;;;;4994910;28;20168;-82
2023/01/13 01:03:32;;;;;;;1.60;1.00;;;8.10;99.90;;;;;;4995367;28;20562;-82
2023/01/13 01:06:04;;;;;;;1.73;1.10;;;8.20;99.90;;;;;;4995055;28;20179;-82
2023/01/13 01:08:30;;;;;;;3.37;1.27;;;8.10;99.90;;;;;;4995050;28;20653;-82
2023/01/13 01:11:04;;;;;;;1.30;1.20;;;8.10;99.90;;;;;;4996124;28;20175;-82
2023/01/13 01:13:30;;;;;;;2.00;1.20;;;8.10;99.90;;;;;;4994883;28;20289;-82
2023/01/13 01:15:55;;;;;;;1.70;1.20;;;8.10;99.90;;;;;;4994839;28;20247;-82
2023/01/13 01:18:21;;;;;;;1.43;1.10;;;8.20;99.90;;;;;;5011183;28;20613;-84
2023/01/13 01:20:47;;;;;;;1.30;1.20;;;8.20;99.90;;;;;;4994798;28;20201;-82
2023/01/13 01:23:12;;;;;;;2.03;1.10;;;8.10;99.90;;;;;;5012532;28;20206;-82
2023/01/13 01:25:38;;;;;;;1.17;1.00;;;8.20;99.90;;;;;;4994950;28;20183;-82
2023/01/13 01:28:03;;;;;;;1.73;1.00;;;8.20;99.90;;;;;;5012313;28;20572;-82
2023/01/13 01:30:29;;;;;;;1.87;0.97;;;8.20;99.90;;;;;;5012188;28;20195;-82
2023/01/13 01:32:56;;;;;;;1.77;1.00;;;8.30;99.90;;;;;;4994968;28;20226;-82
2023/01/13 01:35:22;;;;;;;2.13;1.00;;;8.30;99.90;;;;;;5012447;28;20178;-82
2023/01/13 01:37:48;;;;;;;1.00;0.90;;;8.30;99.90;;;;;;4995120;28;20233;-82
2023/01/13 01:40:13;;;;;;;1.97;1.23;;;8.30;99.90;;;;;;4994867;28;20195;-82
2023/01/13 01:45:25;;;;;;;1.97;1.13;;;8.30;99.90;;;;;;5012750;28;20186;-82
2023/01/13 01:47:58;;;;;;;1.60;1.10;;;8.20;99.90;;;;;;5012455;28;20183;-82
2023/01/13 01:50:25;;;;;;;1.77;1.10;;;8.30;99.90;;;;;;4985015;28;20195;-82
2023/01/13 01:52:58;;;;;;;2.40;1.10;;;8.30;99.90;;;;;;5006675;28;20190;-82
2023/01/13 01:55:29;;;;;;;1.17;1.07;;;8.30;99.90;;;;;;5012285;28;20167;-82
2023/01/13 01:58:02;;;;;;;3.73;1.20;;;8.30;99.90;;;;;;4996740;28;20195;-83
2023/01/13 02:00:28;;;;;;;2.73;1.10;;;8.30;99.90;;;;;;4998334;28;20191;-82
2023/01/13 02:02:54;;;;;;;1.57;0.97;;;8.30;99.90;;;;;;4998249;28;20171;-82
2023/01/13 02:05:21;;;;;;;1.10;1.00;;;8.30;99.90;;;;;;5015929;28;20178;-82
2023/01/13 02:07:50;;;;;;;1.27;1.00;;;8.30;99.90;;;;;;4998366;28;20168;-82
2023/01/13 02:10:19;;;;;;;1.00;0.90;;;8.40;99.90;;;;;;4998097;28;20298;-82
2023/01/13 02:12:46;;;;;;;1.70;0.90;;;8.40;99.90;;;;;;4998011;28;20168;-82
2023/01/13 02:15:13;;;;;;;1.40;0.90;;;8.40;99.90;;;;;;5015603;28;20252;-83
2023/01/13 02:18:08;;;;;;;2.00;0.97;;;8.40;99.90;;;;;;5015572;28;20262;-82
2023/01/13 02:20:33;;;;;;;0.80;0.73;;;8.40;99.90;;;;;;5015716;28;20198;-83
2023/01/13 02:26:20;;;;;;;2.17;0.97;;;8.40;99.90;;;;;;5015946;28;20210;-82
2023/01/13 02:32:02;;;;;;;0.90;0.83;;;8.30;99.90;;;;;;5015545;28;20185;-82
2023/01/13 02:34:34;;;;;;;3.53;0.80;;;8.30;99.90;;;;;;4997611;28;20211;-81
2023/01/13 02:37:07;;;;;;;0.80;0.80;;;8.30;99.90;;;;;;4998200;28;20255;-79
2023/01/13 02:39:40;;;;;;;2.23;0.90;;;8.30;99.90;;;;;;5015285;28;20638;-82
2023/01/13 02:45:22;;;;;;;1.17;0.90;;;8.30;99.90;;;;;;5014899;28;20190;-82
2023/01/13 02:47:51;;;;;;;1.33;1.00;;;8.40;99.90;;;;;;4997939;28;20183;-82
2023/01/13 02:50:21;;;;;;;1.20;0.80;;;8.30;99.90;;;;;;5014879;28;20280;-83
2023/01/13 02:52:53;;;;;;;1.63;0.80;;;8.40;99.90;;;;;;5014984;28;20176;-82
2023/01/13 02:55:27;;;;;;;1.93;0.90;;;8.40;99.90;;;;;;4997363;28;20182;-84
2023/01/13 02:57:57;;;;;;;2.10;0.90;;;8.40;99.90;;;;;;4997214;28;20198;-82
2023/01/13 03:00:23;;;;;;;0.80;0.80;;;8.40;99.90;;;;;;4997341;28;20241;-82
2023/01/13 03:02:49;;;;;;;1.37;0.80;;;8.50;99.90;;;;;;5014729;28;20222;-82
2023/01/13 03:05:15;;;;;;;1.03;0.90;;;8.40;99.90;;;;;;5014756;28;20183;-82
2023/01/13 03:08:07;;;;;;;1.10;0.90;;;8.40;99.90;;;;;;4996916;28;20229;-82
2023/01/13 03:10:37;;;;;;;0.67;0.67;;;8.40;99.90;;;;;;4996130;28;20214;-82
2023/01/13 03:13:18;;;;;;;1.60;0.90;;;8.40;99.90;;;;;;4997011;28;20259;-82
2023/01/13 03:16:08;;;;;;;1.00;0.90;;;8.40;99.90;;;;;;4997053;28;20167;-82
2023/01/13 03:18:56;;;;;;;0.77;0.77;;;8.40;99.90;;;;;;4996700;28;20176;-84
2023/01/13 03:21:39;;;;;;;0.90;0.67;;;8.40;99.90;;;;;;4996604;28;20171;-82
2023/01/13 03:24:16;;;;;;;2.53;0.90;;;8.30;99.90;;;;;;5014277;28;20178;-82
2023/01/13 03:26:49;;;;;;;1.13;0.90;;;8.30;99.90;;;;;;5006758;28;20597;-82
2023/01/13 03:29:31;;;;;;;1.60;0.80;;;8.40;99.90;;;;;;5000834;28;20199;-82
2023/01/13 03:32:02;;;;;;;1.23;0.83;;;8.30;99.90;;;;;;5009163;28;20175;-82
2023/01/13 03:34:35;;;;;;;0.90;0.90;;;8.40;99.90;;;;;;5014217;28;20292;-82
2023/01/13 03:37:05;;;;;;;1.43;0.80;;;8.30;99.90;;;;;;5013920;28;20180;-82
2023/01/13 03:39:36;;;;;;;1.00;0.90;;;8.30;99.90;;;;;;4996326;28;20231;-82
2023/01/13 03:42:10;;;;;;;1.37;0.90;;;8.40;99.90;;;;;;5014195;28;20172;-82
2023/01/13 03:44:45;;;;;;;0.70;0.70;;;8.40;99.90;;;;;;4996414;28;20184;-82
2023/01/13 03:47:35;;;;;;;1.00;0.90;;;8.40;99.90;;;;;;4999273;28;20206;-82
2023/01/13 03:50:24;;;;;;;0.80;0.80;;;8.40;99.90;;;;;;4979978;28;20206;-82
2023/01/13 03:52:58;;;;;;;0.80;0.80;;;8.40;99.90;;;;;;4957727;28;20180;-82
2023/01/13 03:55:29;;;;;;;0.73;0.73;;;8.50;99.90;;;;;;4974837;28;20180;-82
2023/01/13 03:58:18;;;;;;;0.93;0.70;;;8.50;99.90;;;;;;4957513;28;20184;-82
2023/01/13 04:00:51;;;;;;;0.87;0.70;;;8.50;99.90;;;;;;4974661;28;20187;-82
2023/01/13 04:03:42;;;;;;;2.47;1.10;;;8.50;99.90;;;;;;4957603;28;20190;-82
2023/01/13 04:06:36;;;;;;;1.17;0.90;;;8.60;99.90;;;;;;4957353;28;20199;-83
2023/01/13 04:09:13;;;;;;;3.03;1.00;;;8.50;99.90;;;;;;4957292;28;20210;-82
2023/01/13 04:11:43;;;;;;;0.80;0.80;;;8.60;99.90;;;;;;4957116;28;20178;-82
2023/01/13 04:14:11;;;;;;;1.07;0.80;;;8.50;99.90;;;;;;4956980;28;20205;-82
2023/01/13 04:16:37;;;;;;;1.00;0.90;;;8.60;99.90;;;;;;4957154;28;20185;-83
2023/01/13 04:19:03;;;;;;;1.40;0.80;;;8.50;99.90;;;;;;4956936;28;20197;-82
2023/01/13 04:21:29;;;;;;;0.93;0.80;;;8.60;99.90;;;;;;4956697;28;20170;-84
2023/01/13 04:23:55;;;;;;;1.53;0.70;;;8.60;99.90;;;;;;4974420;28;20268;-82
2023/01/13 04:26:22;;;;;;;0.90;0.90;;;8.60;99.90;;;;;;4957136;28;20324;-83
2023/01/13 04:28:48;;;;;;;0.97;0.80;;;8.70;99.90;;;;;;4956797;28;20211;-82
2023/01/13 04:31:13;;;;;;;1.80;0.70;;;8.60;99.90;;;;;;4956562;28;20182;-82
2023/01/13 04:33:39;;;;;;;0.70;0.70;;;8.70;99.90;;;;;;4973763;28;20202;-84
2023/01/13 04:36:05;;;;;;;0.60;0.60;;;8.70;99.90;;;;;;4974291;28;20179;-82
2023/01/13 04:38:30;;;;;;;0.77;0.70;;;8.70;99.90;;;;;;4956485;28;20178;-82
2023/01/13 04:40:56;;;;;;;1.33;0.60;;;8.70;99.90;;;;;;4974056;28;20168;-82
2023/01/13 04:43:21;;;;;;;0.67;0.67;;;8.70;99.90;;;;;;4973854;28;20169;-82
2023/01/13 04:45:47;;;;;;;0.60;0.60;;;8.70;99.90;;;;;;4956765;28;20320;-82
2023/01/13 04:48:13;;;;;;;1.00;0.77;;;8.70;99.90;;;;;;4956269;28;20177;-82
2023/01/13 04:50:38;;;;;;;1.20;0.90;;;8.70;99.90;;;;;;4956286;28;20212;-82
2023/01/13 04:53:04;;;;;;;0.70;0.70;;;8.60;99.90;;;;;;4973874;28;20178;-82
2023/01/13 04:55:30;;;;;;;1.13;0.90;;;8.60;99.90;;;;;;4973779;28;20180;-83
2023/01/13 04:58:04;;;;;;;1.20;0.60;;;8.60;99.90;;;;;;4956608;28;20208;-82
2023/01/13 05:00:30;;;;;;;1.80;0.80;;;8.60;99.90;;;;;;4973601;28;20199;-82
2023/01/13 05:02:56;;;;;;;0.90;0.70;;;8.60;99.90;;;;;;4973636;28;20254;-81
2023/01/13 05:05:22;;;;;;;0.90;0.70;;;8.60;99.90;;;;;;4956575;28;20263;-82
2023/01/13 05:07:47;;;;;;;0.90;0.80;;;8.60;99.90;;;;;;4968233;28;20624;-82
2023/01/13 05:10:13;;;;;;;1.23;0.90;;;8.60;99.90;;;;;;4984634;28;20242;-82
2023/01/13 05:18:07;;;;;;;0.70;0.70;;;8.60;99.90;;;;;;5012993;28;20222;-82
2023/01/13 05:20:33;;;;;;;0.80;0.80;;;8.60;99.90;;;;;;5005633;28;20197;-82
2023/01/13 05:25:43;;;;;;;1.23;0.83;;;8.60;99.90;;;;;;5012856;28;20207;-82
2023/01/13 05:28:09;;;;;;;0.80;0.70;;;8.60;99.90;;;;;;4995212;28;20176;-82
2023/01/13 05:30:43;;;;;;;0.97;0.80;;;8.60;99.90;;;;;;4994702;28;20224;-83
2023/01/13 05:33:14;;;;;;;0.67;0.67;;;8.60;99.90;;;;;;4997124;28;20662;-82
2023/01/13 05:35:41;;;;;;;1.17;0.50;;;8.70;99.90;;;;;;5016256;28;20173;-83
2023/01/13 05:38:07;;;;;;;0.33;0.33;;;8.60;99.90;;;;;;4998613;28;20169;-82
2023/01/13 05:43:20;;;;;;;0.37;0.33;;;8.30;99.90;;;;;;5009278;28;20246;-82
2023/01/13 05:45:59;;;;;;;0.60;0.40;;;8.00;99.90;;;;;;4984514;28;20175;-82
2023/01/13 05:48:28;;;;;;;0.90;0.50;;;7.90;99.90;;;;;;4990310;28;20171;-82
2023/01/13 05:50:54;;;;;;;0.70;0.40;;;7.80;99.90;;;;;;5006868;28;20556;-82
2023/01/13 05:53:20;;;;;;;1.27;0.40;;;7.70;99.90;;;;;;4988148;28;20749;-82
2023/01/13 05:55:46;;;;;;;0.20;0.20;;;7.60;99.90;;;;;;5016110;28;20181;-82
2023/01/13 05:58:14;;;;;;;0.43;0.20;;;7.50;99.90;;;;;;5006153;28;20182;-82
2023/01/13 06:00:39;;;;;;;0.53;0.30;;;7.30;99.90;;;;;;5008175;28;20237;-82
2023/01/13 06:03:06;;;;;;;0.20;0.13;;;7.20;99.90;;;;;;5015652;28;20179;-81
2023/01/13 06:05:33;;;;;;;0.77;0.20;;;7.10;99.90;;;;;;5015949;28;20189;-82
2023/01/13 06:08:00;;;;;;;0.30;0.30;;;7.00;99.90;;;;;;4998823;28;20182;-81
2023/01/13 06:10:27;;;;;;;0.33;0.33;;;6.90;99.90;;;;;;5016893;28;20220;-80
2023/01/13 06:12:53;;;;;;;0.43;0.13;;;6.80;99.90;;;;;;4987700;28;20257;-80
2023/01/13 06:15:19;;;;;;;1.80;0.50;;;6.70;99.90;;;;;;5007145;28;20253;-79
2023/01/13 06:17:44;;;;;;;1.23;0.30;;;6.70;99.90;;;;;;5018714;28;20192;-80
2023/01/13 06:20:11;;;;;;;0.60;0.60;;;6.70;99.90;;;;;;5018442;28;20205;-80
2023/01/13 06:22:40;;;;;;;2.07;0.50;;;6.70;99.90;;;;;;5001726;28;20247;-80
2023/01/13 06:25:35;;;;;;;0.87;0.37;;;6.70;99.90;;;;;;5017925;28;20239;-83
2023/01/13 06:28:02;;;;;;;0.80;0.57;;;6.60;99.90;;;;;;5018688;28;20180;-79
2023/01/13 06:30:34;;;;;;;0.67;0.53;;;6.60;99.90;;;;;;5020372;28;20256;-79
2023/01/13 06:33:03;;;;;;;1.10;0.57;;;6.60;99.90;;;;;;5019743;28;20181;-79
2023/01/13 06:35:32;;;;;;;1.33;0.43;;;6.60;99.90;;;;;;5018293;28;20181;-82
2023/01/13 06:38:00;;;;;;;1.00;0.50;;;6.60;99.90;;;;;;5018635;28;20174;-79
2023/01/13 06:40:25;;;;;;;0.97;0.60;;;6.50;99.90;;;;;;5001271;28;20194;-79
2023/01/13 06:45:38;;;;;;;0.63;0.40;;;6.50;99.90;;;;;;5005327;28;20265;-80
2023/01/13 06:48:04;;;;;;;0.43;0.40;;;6.40;99.90;;;;;;5000783;28;20174;-80
2023/01/13 06:50:29;;;;;;;0.57;0.57;;;6.30;99.90;;;;;;5000506;28;20255;-80
2023/01/13 06:52:55;;;;;;;0.57;0.50;;;6.40;99.90;;;;;;5017654;28;20184;-80
2023/01/13 06:55:20;;;;;;;1.00;0.60;;;6.40;99.90;;;;;;4999368;28;20212;-83
2023/01/13 06:57:56;;;;;;;0.37;0.33;;;6.40;99.90;;;;;;5000154;28;20665;-80
2023/01/13 07:00:24;;;;;;;0.20;0.20;;;6.40;99.90;;;;;;4999460;28;20201;-80
2023/01/13 07:02:50;;;;;;;1.63;0.40;;;6.40;99.90;;;;;;4999922;28;20196;-80
2023/01/13 07:05:16;;;;;;;0.60;0.20;;;6.40;99.90;;;;;;5016772;28;20174;-81
2023/01/13 07:07:42;;;;;;;0.63;0.20;;;6.40;99.90;;;;;;4998930;28;20185;-80
2023/01/13 07:10:12;;;;;;;0.60;0.37;;;6.50;99.90;;;;;;5000838;28;20312;-80
2023/01/13 07:15:17;;;;;;;0.33;0.33;;;6.50;99.90;;;;;;5017598;28;20172;-80
2023/01/13 07:15:25;;;;;;;0.93;0.40;;;6.50;99.90;;;;;;5017737;28;20200;-80
2023/01/13 07:17:51;;;;;;;1.60;0.40;;;6.50;99.90;;;;;;5001268;28;20210;-79
2023/01/13 07:20:17;;;;;;;0.40;0.40;;;6.50;99.90;;;;;;4999637;28;20279;-79
2023/01/13 07:22:43;;;;;;;0.30;0.30;;;6.50;99.90;;;;;;4998968;28;20271;-83
2023/01/13 07:25:09;;;;;;;0.47;0.30;;;6.50;99.90;;;;;;5015925;28;20184;-82
2023/01/13 07:27:35;;;;;;;0.30;0.30;;;6.50;99.90;;;;;;4999238;28;20183;-81
2023/01/13 07:30:02;;;;;;;0.43;0.30;;;6.50;99.90;;;;;;4999734;28;20438;-80
2023/01/13 07:32:31;;;;;;;0.50;0.50;;;6.50;99.90;;;;;;5000044;28;20177;-80
2023/01/13 07:35:03;;;;;;;0.50;0.50;;;6.50;99.90;;;;;;5015979;28;20210;-80
2023/01/13 07:37:29;;;;;;;0.60;0.30;;;6.50;99.90;;;;;;5016595;28;20185;-81
2023/01/13 07:39:54;;;;;;;0.37;0.30;;;6.50;99.90;;;;;;5000160;28;20213;-81
2023/01/13 07:45:05;;;;;;;0.70;0.47;;;6.50;99.90;;;;;;5020338;28;20187;-79
2023/01/13 07:47:30;;;;;;;0.47;0.40;;;6.50;99.90;;;;;;5017032;28;20174;-80
2023/01/13 07:49:56;;;;;;;1.87;0.60;;;6.50;99.90;;;;;;5000410;28;20239;-79
2023/01/13 07:52:21;;;;;;;1.07;0.40;;;6.40;99.90;;;;;;4999970;28;20172;-79
2023/01/13 07:54:47;;;;;;;1.70;0.80;;;6.40;99.90;;;;;;5018096;28;20201;-78
2023/01/13 07:57:12;;;;;;;1.67;0.50;;;6.30;99.90;;;;;;4999880;28;20179;-79
2023/01/13 07:59:38;;;;;;;0.47;0.40;;;6.30;99.90;;;;;;5018096;28;20202;-79
2023/01/13 08:02:03;;;;;;;0.80;0.50;;;6.30;99.90;;;;;;5000064;28;20652;-79
2023/01/13 08:04:29;;;;;;;1.00;0.43;;;6.20;99.90;;;;;;5017643;28;20181;-79
2023/01/13 08:06:54;;;;;;;0.80;0.40;;;6.30;99.90;;;;;;5017826;28;20211;-79
2023/01/13 08:09:20;;;;;;;1.50;0.53;;;6.30;99.90;;;;;;5000416;28;20274;-78
2023/01/13 08:13:16;;;;;;;1.03;0.50;;;6.20;99.90;;;;;;5018210;28;20559;-79
2023/01/13 08:14:31;;;;;;;0.30;0.30;;;6.20;99.90;;;;;;5017017;28;20215;-79
2023/01/13 08:16:57;;;;;;;2.60;0.60;;;6.10;99.90;;;;;;5000081;28;20215;-80
2023/01/13 08:19:22;;;;;;;1.27;0.50;;;6.10;99.90;;;;;;5017593;28;20202;-80
2023/01/13 08:21:48;;;;;;;2.00;0.50;;;6.00;99.90;;;;;;4999909;28;20182;-79
2023/01/13 08:24:13;;;;;;;1.07;0.60;;;6.00;99.90;;;;;;4999879;28;20192;-79
2023/01/13 08:26:39;;;;;;;1.47;0.70;;;6.00;99.90;;;;;;5000554;28;20176;-79
2023/01/13 08:29:04;;;;;;;3.40;0.70;;;6.00;99.90;;;;;;5017700;28;20191;-81
2023/01/13 08:31:30;;;;;;;2.67;0.90;;;6.00;99.90;;;;;;5000066;28;20258;-79
2023/01/13 08:33:55;;;;;;;2.10;0.70;;;6.00;99.90;;;;;;4999985;28;20240;-79
2023/01/13 08:36:21;;;;;;;0.77;0.50;;;6.10;99.90;;;;;;5017224;28;20173;-79
2023/01/13 08:38:46;;;;;;;1.80;0.50;;;6.20;99.90;;;;;;5016842;28;20247;-78
2023/01/13 08:41:53;;;;;;;2.40;0.80;;;6.20;99.90;;;;;;4999797;28;20184;-78
2023/01/13 08:44:00;;;;;;;1.23;0.60;;;6.30;99.90;;;;;;5017226;28;20213;-79
2023/01/13 08:46:26;;;;;;;1.57;0.80;;;6.40;99.90;;;;;;5017472;28;20170;-79
2023/01/13 08:48:51;;;;;;;1.13;0.70;;;6.40;99.90;;;;;;4998824;28;20247;-78
2023/01/13 08:51:17;;;;;;;1.83;0.70;;;6.50;99.90;;;;;;5017674;28;20178;-78
2023/01/13 08:53:42;;;;;;;1.07;0.60;;;6.50;99.90;;;;;;4997952;28;20205;-78
2023/01/13 08:56:12;;;;;;;1.63;0.90;;;6.50;99.90;;;;;;5016047;28;20179;-79
2023/01/13 08:58:37;;;;;;;1.80;0.70;;;6.50;99.90;;;;;;5015434;28;20197;-79
2023/01/13 09:01:05;;;;;;;3.23;0.90;;;6.50;99.90;;;;;;4998162;28;20180;-79
2023/01/13 09:03:30;;;;;;;1.17;0.80;;;6.60;99.90;;;;;;5015758;28;20183;-79
2023/01/13 09:05:56;;;;;;;2.60;0.93;;;6.70;99.90;;;;;;5015777;28;20268;-81
2023/01/13 09:08:21;;;;;;;2.20;0.90;;;6.70;99.90;;;;;;4986346;28;20206;-81
2023/01/13 09:10:47;;;;;;;1.33;0.80;;;6.70;99.90;;;;;;4995241;28;20189;-78
2023/01/13 09:13:13;;;;;;;1.90;0.90;;;6.70;99.90;;;;;;5014866;28;20644;-78
2023/01/13 09:15:40;;;;;;;2.97;0.90;;;6.60;99.90;;;;;;5015676;28;20648;-79
2023/01/13 09:18:06;;;;;;;1.00;0.90;;;6.70;99.90;;;;;;5014891;28;20181;-79
2023/01/13 09:20:32;;;;;;;1.27;0.90;;;6.60;99.90;;;;;;5015026;28;20703;-79
2023/01/13 09:22:57;;;;;;;3.13;0.83;;;6.70;99.90;;;;;;4997775;28;20177;-78
2023/01/13 09:25:23;;;;;;;1.30;0.90;;;6.70;99.90;;;;;;5015853;28;20244;-80
2023/01/13 09:27:48;;;;;;;2.53;1.00;;;6.80;99.90;;;;;;4990308;28;20179;-79
2023/01/13 09:30:14;;;;;;;0.67;0.63;;;6.90;99.90;;;;;;4960607;28;20307;-80
2023/01/13 09:32:40;;;;;;;2.97;1.07;;;7.10;99.90;;;;;;4987349;28;20182;-80
2023/01/13 09:35:07;;;;;;;2.00;0.90;;;7.30;99.90;;;;;;4990319;28;20203;-79
2023/01/13 09:37:36;;;;;;;1.93;0.90;;;7.50;99.90;;;;;;4976050;28;20278;-81
2023/01/13 09:40:18;;;;;;;1.20;0.70;;;7.70;99.90;;;;;;4977803;28;20613;-80
2023/01/13 09:45:50;;;;;;;1.60;0.80;;;7.70;99.90;;;;;;4996203;28;20190;-80
2023/01/13 09:48:31;;;;;;;2.30;0.83;;;7.70;99.90;;;;;;4977752;28;20273;-81
2023/01/13 09:51:08;;;;;;;2.23;0.80;;;7.80;99.90;;;;;;4996040;28;20206;-79
2023/01/13 09:53:49;;;;;;;2.03;0.80;;;8.00;99.90;;;;;;4978849;28;20202;-80
2023/01/13 09:56:15;;;;;;;1.50;0.90;;;8.10;99.90;;;;;;4995950;28;20602;-79
2023/01/13 09:58:47;;;;;;;1.30;0.80;;;8.00;99.90;;;;;;4997477;28;20229;-79
2023/01/13 10:01:28;;;;;;;1.87;0.90;;;7.90;99.90;;;;;;4980385;28;20179;-79
2023/01/13 10:03:54;;;;;;;1.40;0.80;;;7.80;99.90;;;;;;4979808;28;20186;-80
2023/01/13 10:06:33;;;;;;;1.10;0.80;;;7.70;99.90;;;;;;4979231;28;20330;-79
2023/01/13 10:08:59;;;;;;;1.90;0.80;;;7.60;99.90;;;;;;4978485;28;20263;-79
2023/01/13 10:14:22;;;;;;;1.00;0.70;;;7.50;99.90;;;;;;4996075;28;20211;-79
2023/01/13 10:16:54;;;;;;;0.77;0.73;;;7.60;99.90;;;;;;4994669;28;20182;-79
2023/01/13 10:19:31;;;;;;;2.27;0.83;;;7.50;99.90;;;;;;4980156;28;20195;-79
2023/01/13 10:22:31;;;;;;;1.00;0.70;;;7.50;99.90;;;;;;4993386;28;20666;-80
2023/01/13 10:25:05;;;;;;;0.80;0.60;;;7.50;99.90;;;;;;5007076;28;20261;-80
2023/01/13 10:27:37;;;;;;;1.33;0.77;;;7.50;99.90;;;;;;4980745;28;20269;-80
2023/01/13 10:30:31;;;;;;;1.60;0.60;;;7.50;99.90;;;;;;4979495;28;20205;-80
2023/01/13 10:32:59;;;;;;;2.80;1.80;;;7.60;99.90;;;;;;4997105;28;20198;-80
2023/01/13 10:35:53;;;;;;;3.77;2.20;;;7.60;99.90;;;;;;4979434;28;20208;-80
2023/01/13 10:38:26;;;;;;;1.87;0.80;;;7.60;99.90;;;;;;4997634;28;20179;-78
2023/01/13 10:40:58;;;;;;;7.40;3.63;;;7.60;99.90;;;;;;4997528;28;20181;-80
2023/01/13 10:43:25;;;;;;;6.87;3.83;;;7.70;99.90;;;;;;4979920;28;20202;-80
2023/01/13 10:46:02;;;;;;;3.10;1.50;;;7.70;99.90;;;;;;4998633;28;20618;-79
2023/01/13 10:49:02;;;;;;;2.63;1.27;;;7.60;99.90;;;;;;4997844;28;20178;-80
2023/01/13 10:51:38;;;;;;;8.97;3.47;;;7.60;99.90;;;;;;4975570;28;20187;-80
2023/01/13 10:54:10;;;;;;;3.73;1.77;;;7.70;99.90;;;;;;4999000;28;20208;-80
2023/01/13 10:56:36;;;;;;;2.33;1.50;;;7.70;99.90;;;;;;5016648;28;20178;-80
2023/01/13 10:59:27;;;;;;;2.87;1.33;;;7.70;99.90;;;;;;4999195;28;20194;-80
2023/01/13 11:01:58;;;;;;;384.93;143.50;;;7.70;99.90;;;;;;5015992;28;20668;-85
2023/01/13 11:04:29;;;;;;;3.77;1.80;;;8.20;99.90;;;;;;4998043;28;20228;-83
2023/01/13 11:06:55;;;;;;;8.60;2.90;;;8.00;99.90;;;;;;5015909;28;20262;-82
2023/01/13 11:09:21;;;;;;;4.53;1.00;;;8.10;99.90;;;;;;4981104;28;20223;-84
2023/01/13 11:11:54;;;;;;;5.27;2.30;;;8.30;99.90;;;;;;5016390;28;20179;-82
2023/01/13 11:14:48;;;;;;;2.10;0.90;;;8.50;99.90;;;;;;5016329;28;20808;-81
2023/01/13 11:17:42;;;;;;;2.90;1.57;;;8.60;99.90;;;;;;4948369;28;20181;-82
2023/01/13 11:20:11;;;;;;;6.17;2.63;;;8.80;99.90;;;;;;4993742;28;20191;-83
2023/01/13 11:22:44;;;;;;;7.30;2.87;;;8.80;99.90;;;;;;5017139;28;20177;-81
2023/01/13 11:25:40;;;;;;;3.03;1.13;;;8.80;99.90;;;;;;5000194;28;20219;-86
2023/01/13 11:28:15;;;;;;;3.63;1.30;;;8.90;99.90;;;;;;4997060;28;20264;-85
2023/01/13 11:30:47;;;;;;;8.70;2.53;;;9.20;99.90;;;;;;5013844;28;20228;-80
2023/01/13 11:33:13;;;;;;;6.67;2.93;;;9.30;99.90;;;;;;4997125;28;20184;-79
2023/01/13 11:36:07;;;;;;;6.30;2.83;;;9.10;99.90;;;;;;4997106;28;20173;-83
2023/01/13 11:38:53;;;;;;;6.17;1.73;;;8.90;99.90;;;;;;4996651;28;20185;-83
2023/01/13 11:41:31;;;;;;;4.53;2.27;;;8.80;99.90;;;;;;4992746;28;20195;-83
2023/01/13 11:44:02;;;;;;;4.70;1.87;;;8.70;99.90;;;;;;4974161;28;20173;-83
2023/01/13 11:46:28;;;;;;;2.90;0.97;;;8.60;99.90;;;;;;4957903;28;20174;-83
2023/01/13 11:48:55;;;;;;;3.40;1.40;;;8.50;99.90;;;;;;4957965;28;20260;-83
2023/01/13 11:51:39;;;;;;;3.27;1.30;;;8.40;99.90;;;;;;4957816;28;20221;-83
2023/01/13 11:54:31;;;;;;;1.97;0.87;;;8.40;99.90;;;;;;4957833;28;20200;-83
2023/01/13 11:57:51;;;;;;;6.50;1.57;;;8.20;99.90;;;;;;4975326;28;20211;-83
2023/01/13 12:00:22;;;;;;;5.23;2.77;;;8.30;99.90;;;;;;4861887;29;20201;-82
2023/01/13 12:03:36;;;;;;;4.10;1.70;;;8.30;99.90;;;;;;4957968;28;20187;-83
2023/01/13 12:06:20;;;;;;;3.37;1.50;;;8.50;99.90;;;;;;4937859;28;20192;-83
2023/01/13 12:08:55;;;;;;;2.00;1.10;;;9.00;99.90;;;;;;4957163;28;20639;-83
2023/01/13 12:14:45;;;;;;;4.03;1.87;;;9.30;99.90;;;;;;4974740;28;20200;-84
2023/01/13 12:17:31;;;;;;;6.20;1.60;;;9.50;99.90;;;;;;4961803;28;20201;-83
2023/01/13 12:19:59;;;;;;;3.23;1.20;;;9.70;99.90;;;;;;4946428;28;20209;-83
2023/01/13 12:22:31;;;;;;;5.60;1.90;;;9.70;99.90;;;;;;4994108;28;20178;-80
2023/01/13 12:25:11;;;;;;;4.77;1.37;;;9.80;99.90;;;;;;4976731;28;20183;-83
2023/01/13 12:27:46;;;;;;;4.97;1.40;;;9.80;99.90;;;;;;4970885;28;20602;-83
2023/01/13 12:30:47;;;;;;;5.93;2.47;;;10.00;99.90;;;;;;5002763;28;20209;-83
2023/01/13 12:33:30;;;;;;;2.80;1.20;;;10.10;99.90;;;;;;4996977;28;20202;-84
2023/01/13 12:36:00;;;;;;;2.00;1.20;;;10.10;99.90;;;;;;4975765;28;20232;-84
2023/01/13 12:38:35;;;;;;;2.50;1.47;;;9.80;99.90;;;;;;4975347;28;20186;-83
2023/01/13 12:41:23;;;;;;;3.33;1.37;;;9.50;99.90;;;;;;4973971;28;20178;-82
2023/01/13 12:46:44;;;;;;;4.57;1.20;;;9.30;99.90;;;;;;4992566;28;20209;-83
2023/01/13 12:49:22;;;;;;;4.83;1.63;;;9.40;99.90;;;;;;4975225;28;20753;-83
2023/01/13 12:52:11;;;;;;;3.20;1.50;;;9.70;99.90;;;;;;4975404;28;20178;-83
2023/01/13 12:54:39;;;;;;;4.67;1.77;;;10.00;99.90;;;;;;4993008;28;20609;-83
2023/01/13 12:57:21;;;;;;;2.47;1.20;;;10.10;99.90;;;;;;4993111;28;20660;-84
2023/01/13 13:00:02;;;;;;;2.97;1.00;;;10.00;99.90;;;;;;4975650;28;20203;-85
2023/01/13 13:02:32;;;;;;;3.63;1.27;;;9.70;99.90;;;;;;4975694;28;20179;-84
2023/01/13 13:05:13;;;;;;;4.40;1.10;;;9.50;99.90;;;;;;4975606;28;20184;-84
2023/01/13 13:07:38;;;;;;;3.73;1.60;;;9.30;99.90;;;;;;4975470;28;20225;-83
2023/01/13 13:10:18;;;;;;;3.13;1.03;;;9.20;99.90;;;;;;5070261;22;20229;-83
2023/01/13 13:15:32;;;;;;;4.33;1.60;;;8.80;99.90;;;;;;5032669;28;20207;-85
2023/01/13 13:17:58;;;;;;;3.50;0.93;;;8.80;99.90;;;;;;5033183;28;20207;-85
2023/01/13 13:21:04;;;;;;;2.67;1.00;;;8.80;99.90;;;;;;5002725;28;20636;-85
2023/01/13 13:23:34;;;;;;;4.47;1.30;;;8.60;99.90;;;;;;4995974;28;20228;-85
2023/01/13 13:26:03;;;;;;;2.73;1.00;;;8.60;99.90;;;;;;5012307;28;20159;-88
2023/01/13 13:28:35;;;;;;;3.00;1.30;;;8.60;99.90;;;;;;5012335;28;20182;-89
2023/01/13 13:31:22;;;;;;;4.30;1.10;;;8.50;99.90;;;;;;4994650;28;20195;-88
2023/01/13 13:34:14;;;;;;;3.03;1.10;;;8.50;99.90;;;;;;4994576;28;20203;-87
2023/01/13 13:36:59;;;;;;;3.13;0.80;;;8.40;99.90;;;;;;5012069;28;20183;-88
2023/01/13 13:48:17;;;;;;;3.37;1.23;;;8.30;99.90;;;;;;5012289;28;20226;-89
2023/01/13 13:50:48;;;;;;;4.17;1.40;;;8.30;99.90;;;;;;5011653;28;20203;-88
2023/01/13 13:53:13;;;;;;;4.73;1.23;;;8.30;99.90;;;;;;5012830;28;20234;-87
2023/01/13 13:55:50;;;;;;;3.47;1.13;;;8.30;99.90;;;;;;4998138;28;20590;-88
2023/01/13 13:58:16;;;;;;;3.50;1.23;;;8.30;99.90;;;;;;4998565;28;20167;-88
2023/01/13 14:00:46;;;;;;;6.13;1.30;;;8.40;99.90;;;;;;5015491;28;20329;-89
2023/01/13 14:03:23;;;;;;;3.40;1.20;;;8.40;99.90;;;;;;5015571;28;20183;-88
2023/01/13 14:05:59;;;;;;;2.57;0.93;;;8.40;99.90;;;;;;5015659;28;20166;-88
2023/01/13 14:08:28;;;;;;;4.37;1.77;;;8.40;99.90;;;;;;4998313;28;20175;-89
2023/01/13 14:10:53;;;;;;;5.53;2.83;;;8.40;99.90;;;;;;4997446;28;20223;-89
2023/01/13 14:13:25;;;;;;;3.80;1.33;;;8.40;99.90;;;;;;5015367;28;20175;-89